Time;durP1;ratioP1;P1;durP2;ratioP2;P2;SDS_P1;SDS_P2;PMS_P1;PMS_P2;Temp;Humidity;BMP_temperature;BMP_pressure;BME280_temperature;BME280_humidity;BME280_pressure;Samples;Min_cycle;Max_cycle;Signal;HPM_P1;HPM_P2
2022/03/01 00:00:35;;;;;;;0.63;0.63;;;;;;;-7.10;72.98;100899.41;5074581;28;20123;-85
2022/03/01 00:03:03;;;;;;;0.65;0.65;;;;;;;-7.10;73.03;100902.03;5092978;28;20139;-85
2022/03/01 00:05:30;;;;;;;0.68;0.68;;;;;;;-7.12;73.04;100903.88;5092717;28;20449;-85
2022/03/01 00:07:57;;;;;;;0.60;0.60;;;;;;;-7.15;73.11;100890.94;5074698;28;20515;-85
2022/03/01 00:10:25;;;;;;;0.57;0.57;;;;;;;-7.15;73.08;100891.78;5074592;28;20156;-86
2022/03/01 00:12:52;;;;;;;0.45;0.45;;;;;;;-7.15;73.32;100889.16;5092622;28;20125;-85
2022/03/01 00:15:20;;;;;;;0.80;0.80;;;;;;;-7.16;73.09;100892.72;5092855;28;20051;-86
2022/03/01 00:17:47;;;;;;;0.60;0.60;;;;;;;-7.29;73.31;100894.31;5092279;28;20426;-85
2022/03/01 00:20:14;;;;;;;0.73;0.73;;;;;;;-7.47;73.52;100899.66;5074508;28;20039;-85
2022/03/01 00:22:41;;;;;;;0.70;0.70;;;;;;;-7.60;73.78;100888.09;5092503;28;20056;-86
2022/03/01 00:25:10;;;;;;;0.60;0.60;;;;;;;-7.65;74.07;100903.22;5092606;28;20043;-84
2022/03/01 00:27:38;;;;;;;0.70;0.70;;;;;;;-7.79;74.31;100892.66;5093097;28;20071;-86
2022/03/01 00:30:06;;;;;;;0.80;0.80;;;;;;;-7.89;74.44;100887.88;5092058;28;20410;-85
2022/03/01 00:32:36;;;;;;;0.52;0.52;;;;;;;-7.90;74.73;100901.06;5092378;28;20513;-86
2022/03/01 00:35:03;;;;;;;0.60;0.60;;;;;;;-7.89;74.88;100887.88;5092263;28;20097;-85
2022/03/01 00:37:35;;;;;;;0.60;0.60;;;;;;;-7.97;74.95;100890.06;5058828;28;20526;-84
2022/03/01 00:40:04;;;;;;;0.80;0.80;;;;;;;-7.92;75.20;100888.03;5092705;28;20144;-85
2022/03/01 00:42:31;;;;;;;0.80;0.80;;;;;;;-7.89;75.24;100877.41;5074676;28;20067;-85
2022/03/01 00:44:58;;;;;;;0.70;0.70;;;;;;;-7.82;75.26;100877.94;5092724;28;20484;-85
2022/03/01 00:47:26;;;;;;;0.50;0.50;;;;;;;-7.77;75.12;100869.78;5075633;28;20044;-85
2022/03/01 00:49:53;;;;;;;0.60;0.60;;;;;;;-7.79;75.39;100871.69;5092952;28;20035;-86
2022/03/01 00:52:20;;;;;;;0.73;0.73;;;;;;;-7.75;75.16;100879.28;5116729;28;20048;-85
2022/03/01 00:54:47;;;;;;;0.70;0.70;;;;;;;-7.78;75.49;100871.56;5108352;28;20055;-85
2022/03/01 00:57:14;;;;;;;0.88;0.88;;;;;;;-7.81;75.46;100879.59;5087490;28;20078;-85
2022/03/01 00:59:41;;;;;;;0.93;0.93;;;;;;;-7.89;75.62;100866.91;5078976;28;20557;-84
2022/03/01 01:02:11;;;;;;;0.65;0.65;;;;;;;-7.79;75.53;100876.91;5084346;28;20120;-85
2022/03/01 01:04:41;;;;;;;0.60;0.60;;;;;;;-7.78;75.57;100874.19;5102841;28;20120;-85
2022/03/01 01:07:11;;;;;;;0.80;0.80;;;;;;;-7.85;75.57;100870.19;5107500;28;20087;-85
2022/03/01 01:09:38;;;;;;;0.60;0.60;;;;;;;-7.90;75.69;100865.22;5107689;28;20091;-85
2022/03/01 01:12:06;;;;;;;0.60;0.60;;;;;;;-7.95;75.63;100859.38;5092130;28;20502;-86
2022/03/01 01:14:33;;;;;;;0.50;0.50;;;;;;;-7.91;75.63;100863.53;5093116;28;20048;-86
2022/03/01 01:17:00;;;;;;;0.77;0.77;;;;;;;-7.94;75.42;100861.06;5096584;28;20048;-86
2022/03/01 01:19:27;;;;;;;0.73;0.73;;;;;;;-7.99;75.46;100864.88;5097279;28;20028;-87
2022/03/01 01:24:48;;;;;;;0.80;0.80;;;;;;;-8.06;75.60;100870.41;5112378;28;20098;-85
2022/03/01 01:27:16;;;;;;;0.80;0.80;;;;;;;-8.05;75.72;100863.41;5109884;28;20052;-86
2022/03/01 01:29:43;;;;;;;0.60;0.60;;;;;;;-8.07;75.80;100860.88;5095541;28;20086;-86
2022/03/01 01:32:11;;;;;;;0.70;0.70;;;;;;;-7.94;75.76;100857.59;5095654;28;20104;-86
2022/03/01 01:34:38;;;;;;;0.80;0.80;;;;;;;-7.86;75.21;100861.50;5077229;28;20524;-87
2022/03/01 01:37:05;;;;;;;0.70;0.70;;;;;;;-7.81;74.97;100857.78;5077827;28;20499;-85
2022/03/01 01:39:32;;;;;;;0.73;0.73;;;;;;;-7.74;74.85;100859.16;5095521;28;20044;-86
2022/03/01 01:41:59;;;;;;;0.80;0.80;;;;;;;-7.82;74.82;100848.22;5077278;28;20391;-85
2022/03/01 01:44:29;;;;;;;0.70;0.70;;;;;;;-7.70;74.83;100858.91;5077134;28;20047;-85
2022/03/01 01:47:26;;;;;;;0.82;0.82;;;;;;;-7.72;74.67;100862.53;5095291;28;20048;-86
2022/03/01 01:49:53;;;;;;;0.73;0.73;;;;;;;-7.76;74.56;100855.78;5077140;28;20079;-85
2022/03/01 01:52:25;;;;;;;0.60;0.60;;;;;;;-7.72;74.27;100865.16;5077530;28;20544;-86
2022/03/01 01:54:53;;;;;;;0.70;0.70;;;;;;;-7.86;74.08;100866.75;5095308;28;20080;-86
2022/03/01 01:57:23;;;;;;;0.82;0.82;;;;;;;-8.05;74.41;100868.66;5077316;28;20043;-86
2022/03/01 01:59:51;;;;;;;0.80;0.80;;;;;;;-8.21;74.76;100865.97;5094009;28;20147;-86
2022/03/01 02:02:20;;;;;;;0.85;0.85;;;;;;;-8.31;75.09;100868.19;5077662;28;20079;-87
2022/03/01 02:04:48;;;;;;;0.80;0.80;;;;;;;-8.46;75.31;100866.41;5094937;28;20146;-85
2022/03/01 02:07:16;;;;;;;0.70;0.70;;;;;;;-8.55;75.65;100870.34;5095711;28;20056;-86
2022/03/01 02:09:43;;;;;;;0.88;0.88;;;;;;;-8.61;75.78;100862.78;5079053;28;20051;-86
2022/03/01 02:12:11;;;;;;;0.60;0.60;;;;;;;-8.61;75.83;100860.16;5095283;28;20413;-86
2022/03/01 02:14:40;;;;;;;0.80;0.80;;;;;;;-8.64;75.93;100865.56;5095039;28;20094;-88
2022/03/01 02:17:10;;;;;;;0.88;0.88;;;;;;;-8.77;76.36;100860.06;5076462;28;20083;-85
2022/03/01 02:19:47;;;;;;;0.90;0.90;;;;;;;-8.79;76.25;100872.38;5077505;28;20171;-86
2022/03/01 02:22:14;;;;;;;0.63;0.63;;;;;;;-8.89;76.42;100865.91;5077759;28;20056;-86
2022/03/01 02:24:41;;;;;;;0.90;0.90;;;;;;;-8.90;76.50;100876.47;5076997;28;20461;-86
2022/03/01 02:27:08;;;;;;;0.90;0.90;;;;;;;-8.98;76.89;100871.59;5095103;28;20047;-85
2022/03/01 02:29:35;;;;;;;0.88;0.88;;;;;;;-8.97;77.16;100875.91;5095308;28;20075;-87
2022/03/01 02:32:05;;;;;;;0.60;0.60;;;;;;;-8.98;77.17;100871.59;5094528;28;20044;-86
2022/03/01 02:34:32;;;;;;;0.80;0.80;;;;;;;-8.99;77.19;100872.50;5095932;28;20040;-86
2022/03/01 02:37:00;;;;;;;0.90;0.90;;;;;;;-8.89;77.46;100875.53;5083700;28;20391;-86
2022/03/01 02:39:28;;;;;;;0.80;0.80;;;;;;;-8.86;77.32;100871.00;5077281;28;20040;-86
2022/03/01 02:41:55;;;;;;;0.75;0.75;;;;;;;-8.85;77.04;100869.25;5094342;28;20047;-86
2022/03/01 02:44:22;;;;;;;0.70;0.70;;;;;;;-8.88;77.34;100885.09;5094771;28;20048;-86
2022/03/01 02:46:49;;;;;;;0.70;0.70;;;;;;;-8.95;77.30;100880.16;5094275;28;20460;-86
2022/03/01 02:49:17;;;;;;;0.88;0.88;;;;;;;-9.05;77.46;100878.88;5076431;28;20055;-86
2022/03/01 02:51:44;;;;;;;0.70;0.70;;;;;;;-9.06;77.62;100868.50;5094928;28;20054;-86
2022/03/01 02:54:14;;;;;;;0.70;0.70;;;;;;;-8.98;77.59;100869.00;5095644;28;20135;-87
2022/03/01 02:56:43;;;;;;;0.98;0.98;;;;;;;-8.95;77.58;100874.91;5076162;28;20505;-86
2022/03/01 02:59:10;;;;;;;0.98;0.98;;;;;;;-8.89;77.42;100873.75;5094372;28;20047;-86
2022/03/01 03:01:39;;;;;;;0.90;0.90;;;;;;;-8.93;77.25;100867.00;5094022;28;20577;-86
2022/03/01 03:04:06;;;;;;;0.80;0.80;;;;;;;-9.05;77.20;100870.19;5075933;28;20532;-86
2022/03/01 03:06:36;;;;;;;0.90;0.90;;;;;;;-9.06;77.45;100868.50;5094382;28;20052;-87
2022/03/01 03:09:04;;;;;;;0.75;0.75;;;;;;;-9.12;77.58;100860.94;5094233;28;20448;-86
2022/03/01 03:11:31;;;;;;;0.90;0.90;;;;;;;-9.09;77.75;100859.03;5042621;28;20060;-87
2022/03/01 03:13:58;;;;;;;0.70;0.70;;;;;;;-9.06;77.68;100858.91;5060052;28;20130;-87
2022/03/01 03:16:27;;;;;;;0.90;0.90;;;;;;;-9.07;77.70;100861.56;5094784;28;20048;-85
2022/03/01 03:18:54;;;;;;;0.70;0.70;;;;;;;-9.11;77.65;100858.28;5075757;28;20454;-86
2022/03/01 03:21:21;;;;;;;0.90;0.90;;;;;;;-9.16;77.57;100857.66;5096821;28;20052;-86
2022/03/01 03:23:51;;;;;;;0.93;0.93;;;;;;;-9.28;77.75;100858.22;5095709;28;20089;-87
2022/03/01 03:26:18;;;;;;;0.90;0.90;;;;;;;-9.38;77.96;100860.41;5094110;28;20530;-87
2022/03/01 03:28:46;;;;;;;0.90;0.90;;;;;;;-9.34;78.14;100848.91;5094549;28;20044;-86
2022/03/01 03:31:13;;;;;;;0.95;0.95;;;;;;;-9.20;78.13;100849.06;5093589;28;20058;-85
2022/03/01 03:33:41;;;;;;;1.10;1.10;;;;;;;-9.00;77.67;100845.50;5075017;28;20051;-86
2022/03/01 03:36:08;;;;;;;0.80;0.80;;;;;;;-8.75;77.11;100839.06;5075878;28;20082;-84
2022/03/01 03:38:35;;;;;;;0.80;0.80;;;;;;;-8.47;76.18;100851.63;5059817;28;20449;-87
2022/03/01 03:41:02;;;;;;;0.80;0.80;;;;;;;-8.37;75.51;100854.59;5093512;28;20047;-86
2022/03/01 03:43:30;;;;;;;0.80;0.80;;;;;;;-8.30;75.22;100846.34;5076115;28;20108;-85
2022/03/01 03:45:58;;;;;;;0.90;0.90;;;;;;;-8.36;74.85;100845.78;5058572;28;20552;-85
2022/03/01 03:48:26;;;;;;;0.90;0.90;;;;;;;-8.48;74.98;100847.31;5076210;28;20494;-86
2022/03/01 03:50:53;;;;;;;0.80;0.80;;;;;;;-8.49;74.97;100850.84;5076680;28;20052;-85
2022/03/01 03:53:20;;;;;;;0.80;0.80;;;;;;;-8.51;74.76;100843.09;5096857;28;20052;-87
2022/03/01 03:55:48;;;;;;;1.00;1.00;;;;;;;-8.46;74.77;100848.06;5094813;28;20043;-86
2022/03/01 03:58:15;;;;;;;0.93;0.93;;;;;;;-8.61;74.65;100838.38;5071956;28;20090;-85
2022/03/01 04:00:42;;;;;;;0.80;0.80;;;;;;;-8.69;75.00;100843.16;5080872;28;20086;-84
2022/03/01 04:03:11;;;;;;;0.73;0.73;;;;;;;-8.75;75.18;100839.91;5083607;28;20048;-85
2022/03/01 04:05:38;;;;;;;1.08;1.08;;;;;;;-8.74;75.15;100841.59;5059040;28;20071;-86
2022/03/01 04:08:07;;;;;;;0.80;0.80;;;;;;;-8.73;75.13;100847.69;5072253;28;20048;-86
2022/03/01 04:10:34;;;;;;;1.08;1.08;;;;;;;-8.76;75.06;100842.59;5086329;28;20055;-87
2022/03/01 04:13:01;;;;;;;0.80;0.80;;;;;;;-8.93;75.17;100842.59;5069537;28;20079;-85
2022/03/01 04:15:29;;;;;;;0.90;0.90;;;;;;;-9.00;75.59;100855.13;5063220;28;20498;-88
2022/03/01 04:17:56;;;;;;;1.00;1.00;;;;;;;-9.06;75.69;100847.56;5079262;28;20051;-87
2022/03/01 04:20:24;;;;;;;0.70;0.70;;;;;;;-9.09;76.01;100845.94;5065063;28;20322;-86
2022/03/01 04:22:52;;;;;;;0.90;0.90;;;;;;;-8.98;76.09;100848.06;5085651;28;20086;-87
2022/03/01 04:25:20;;;;;;;0.90;0.90;;;;;;;-8.87;75.59;100855.38;5052655;28;20109;-87
2022/03/01 04:27:47;;;;;;;0.70;0.70;;;;;;;-8.78;75.06;100857.56;5053019;28;20049;-85
2022/03/01 04:30:15;;;;;;;0.90;0.90;;;;;;;-8.90;75.02;100861.59;5068939;28;20047;-85
2022/03/01 04:32:46;;;;;;;0.90;0.90;;;;;;;-9.05;75.18;100852.72;5058317;28;20044;-86
2022/03/01 04:35:14;;;;;;;0.93;0.93;;;;;;;-9.14;75.35;100852.31;5084541;28;20117;-87
2022/03/01 04:37:45;;;;;;;0.80;0.80;;;;;;;-9.18;75.51;100864.72;5049078;28;20429;-86
2022/03/01 04:40:14;;;;;;;0.80;0.80;;;;;;;-9.22;75.71;100855.31;5067061;28;20052;-86
2022/03/01 04:42:41;;;;;;;0.80;0.80;;;;;;;-9.31;75.59;100846.16;5059468;28;20522;-86
2022/03/01 04:45:12;;;;;;;0.90;0.90;;;;;;;-9.31;75.78;100848.75;5064154;28;20071;-86
2022/03/01 04:47:40;;;;;;;0.70;0.70;;;;;;;-9.28;76.05;100853.00;5062644;28;20101;-85
2022/03/01 04:50:11;;;;;;;1.00;1.00;;;;;;;-9.23;75.89;100851.00;5091011;28;20043;-87
2022/03/01 04:52:43;;;;;;;1.02;1.02;;;;;;;-9.16;75.80;100861.09;5057733;28;20423;-85
2022/03/01 04:55:12;;;;;;;1.00;1.00;;;;;;;-9.13;75.66;100856.66;5075036;28;20096;-82
2022/03/01 04:57:42;;;;;;;1.10;1.10;;;;;;;-9.03;75.46;100869.22;5105247;28;20052;-86
2022/03/01 05:00:11;;;;;;;1.00;1.00;;;;;;;-8.99;75.36;100862.03;5083267;28;20048;-86
2022/03/01 05:03:04;;;;;;;0.75;0.75;;;;;;;-8.88;75.40;100875.47;5063301;28;20534;-87
2022/03/01 05:05:32;;;;;;;0.88;0.88;;;;;;;-8.75;75.18;100875.72;5053408;28;20056;-87
2022/03/01 05:07:59;;;;;;;0.85;0.85;;;;;;;-8.62;74.73;100870.72;5068288;28;20046;-85
2022/03/01 05:10:27;;;;;;;1.00;1.00;;;;;;;-8.46;74.53;100874.25;5060900;28;20075;-85
2022/03/01 05:12:59;;;;;;;1.02;1.00;;;;;;;-8.08;73.98;100876.66;5063779;28;20429;-85
2022/03/01 05:15:28;;;;;;;1.00;1.00;;;;;;;-7.95;73.26;100864.63;5061203;28;20048;-84
2022/03/01 05:17:58;;;;;;;0.90;0.90;;;;;;;-7.81;72.90;100857.78;5070306;28;20453;-83
2022/03/01 05:20:26;;;;;;;0.93;0.93;;;;;;;-7.66;72.37;100864.84;4765065;28;10000433;-85
2022/03/01 05:22:54;;;;;;;1.02;1.02;;;;;;;-7.68;72.41;100862.28;5088402;28;20359;-85
2022/03/01 05:25:23;;;;;;;0.90;0.90;;;;;;;-7.69;72.46;100865.84;5036658;28;20525;-85
2022/03/01 05:27:52;;;;;;;0.75;0.75;;;;;;;-7.75;72.60;100862.69;5054947;28;20084;-85
2022/03/01 05:30:20;;;;;;;0.88;0.88;;;;;;;-7.78;72.93;100860.25;5051654;28;20566;-84
2022/03/01 05:32:50;;;;;;;0.77;0.77;;;;;;;-7.75;73.06;100857.47;5051451;28;20098;-86
2022/03/01 05:35:20;;;;;;;0.80;0.80;;;;;;;-7.80;72.68;100843.75;5067870;28;20063;-85
2022/03/01 05:37:49;;;;;;;0.70;0.70;;;;;;;-7.73;72.64;100855.59;5034782;28;20117;-83
2022/03/01 05:40:17;;;;;;;0.82;0.82;;;;;;;-7.68;72.66;100858.81;5077714;28;20048;-83
2022/03/01 05:42:44;;;;;;;0.80;0.80;;;;;;;-7.66;72.71;100856.97;5057789;28;20128;-83
2022/03/01 05:45:12;;;;;;;0.95;0.95;;;;;;;-7.59;72.67;100857.50;5056749;28;20064;-85
2022/03/01 05:47:43;;;;;;;0.80;0.80;;;;;;;-7.48;72.59;100855.97;5029106;28;20051;-82
2022/03/01 05:50:15;;;;;;;1.00;0.90;;;;;;;-7.34;72.48;100862.22;5067787;28;20122;-84
2022/03/01 05:52:46;;;;;;;0.70;0.70;;;;;;;-7.17;72.09;100861.31;5059382;28;20519;-83
2022/03/01 05:55:13;;;;;;;1.10;1.10;;;;;;;-7.04;71.96;100851.81;5061444;28;20052;-84
2022/03/01 05:57:40;;;;;;;0.90;0.90;;;;;;;-6.92;71.74;100855.53;5053167;28;20040;-84
2022/03/01 06:00:14;;;;;;;1.00;0.90;;;;;;;-6.80;71.46;100857.44;5079527;28;20073;-84
2022/03/01 06:02:42;;;;;;;0.90;0.90;;;;;;;-6.73;71.37;100853.53;5081247;28;20055;-84
2022/03/01 06:05:11;;;;;;;0.70;0.70;;;;;;;-6.73;70.79;100848.28;5076578;28;20053;-85
2022/03/01 06:07:39;;;;;;;0.77;0.77;;;;;;;-6.54;70.54;100862.03;5054371;28;20122;-82
2022/03/01 06:10:06;;;;;;;0.80;0.80;;;;;;;-6.39;69.97;100862.06;5093151;28;20510;-83
2022/03/01 06:12:34;;;;;;;0.73;0.73;;;;;;;-6.29;69.55;100860.59;5093309;28;20577;-83
2022/03/01 06:15:03;;;;;;;0.90;0.90;;;;;;;-6.16;69.34;100861.53;5093743;28;20520;-83
2022/03/01 06:17:30;;;;;;;0.70;0.70;;;;;;;-6.08;68.87;100871.59;5076649;28;20059;-83
2022/03/01 06:19:57;;;;;;;0.68;0.68;;;;;;;-5.96;68.50;100862.13;5093127;28;20444;-83
2022/03/01 06:22:25;;;;;;;1.00;1.00;;;;;;;-5.79;68.32;100874.22;5094919;28;20117;-82
2022/03/01 06:24:54;;;;;;;0.80;0.80;;;;;;;-5.55;67.80;100869.22;5092388;28;20506;-83
2022/03/01 06:27:24;;;;;;;0.70;0.70;;;;;;;-5.29;67.28;100871.06;5092801;28;20199;-84
2022/03/01 06:29:52;;;;;;;0.63;0.63;;;;;;;-5.09;66.51;100866.31;5094573;28;20052;-85
2022/03/01 06:32:25;;;;;;;0.68;0.68;;;;;;;-4.88;65.76;100867.56;5094109;28;20471;-83
2022/03/01 06:34:52;;;;;;;0.77;0.77;;;;;;;-4.71;65.23;100863.84;5094111;28;20098;-83
2022/03/01 06:37:38;;;;;;;0.73;0.73;;;;;;;-4.73;65.22;100844.66;5094537;28;20048;-83
2022/03/01 06:40:06;;;;;;;0.70;0.70;;;;;;;-4.51;64.90;100859.84;5093841;28;20453;-84
2022/03/01 06:42:38;;;;;;;0.68;0.68;;;;;;;-4.49;64.59;100850.06;5093784;28;20067;-83
2022/03/01 06:45:06;;;;;;;0.60;0.60;;;;;;;-4.28;64.33;100857.47;5092350;28;20056;-82
2022/03/01 06:47:34;;;;;;;0.70;0.70;;;;;;;-4.09;64.21;100854.44;5094120;28;20440;-83
2022/03/01 06:50:01;;;;;;;0.93;0.93;;;;;;;-4.00;64.20;100859.94;5092210;28;20155;-83
2022/03/01 06:52:30;;;;;;;0.70;0.70;;;;;;;-3.90;63.80;100867.19;5093998;28;20048;-84
2022/03/01 06:54:58;;;;;;;0.63;0.63;;;;;;;-3.77;63.69;100870.69;5092075;28;20159;-84
2022/03/01 06:57:29;;;;;;;0.70;0.70;;;;;;;-3.60;63.26;100870.34;5094074;28;20070;-84
2022/03/01 06:59:59;;;;;;;0.90;0.90;;;;;;;-3.44;62.89;100874.53;5092258;28;20044;-83
2022/03/01 07:02:27;;;;;;;0.60;0.60;;;;;;;-3.22;62.08;100858.84;5093354;28;20067;-83
2022/03/01 07:05:00;;;;;;;0.70;0.70;;;;;;;-3.06;61.52;100861.25;5093565;28;20048;-84
2022/03/01 07:07:27;;;;;;;0.75;0.75;;;;;;;-2.86;60.79;100860.63;5093314;28;20403;-83
2022/03/01 07:09:54;;;;;;;0.93;0.93;;;;;;;-2.58;59.60;100861.22;5093003;28;20083;-81
2022/03/01 07:12:27;;;;;;;0.95;0.95;;;;;;;-2.36;59.05;100851.66;5093848;28;20056;-83
2022/03/01 07:14:54;;;;;;;0.70;0.70;;;;;;;-2.21;58.73;100856.63;5091658;28;20564;-83
2022/03/01 07:17:24;;;;;;;0.80;0.80;;;;;;;-1.91;56.38;100862.34;5093106;28;20043;-82
2022/03/01 07:19:51;;;;;;;0.82;0.82;;;;;;;-1.71;54.88;100859.00;5088910;28;20040;-83
2022/03/01 07:22:19;;;;;;;1.00;1.00;;;;;;;-1.52;53.37;100861.03;5090902;28;20415;-85
2022/03/01 07:24:46;;;;;;;1.08;1.08;;;;;;;-1.39;52.38;100856.47;5087966;28;20135;-83
2022/03/01 07:27:13;;;;;;;1.05;1.05;;;;;;;-1.21;51.12;100863.91;5065607;28;20044;-84
2022/03/01 07:29:40;;;;;;;1.17;1.10;;;;;;;-1.12;49.79;100861.34;5082028;28;20044;-84
2022/03/01 07:32:08;;;;;;;0.93;0.93;;;;;;;-0.95;50.24;100862.63;5055014;28;20055;-83
2022/03/01 07:34:36;;;;;;;0.90;0.90;;;;;;;-0.80;50.08;100862.34;5075796;28;20056;-82
2022/03/01 07:37:09;;;;;;;1.00;1.00;;;;;;;-0.61;49.12;100870.47;5072063;28;20050;-85
2022/03/01 07:39:36;;;;;;;0.90;0.90;;;;;;;-0.41;49.29;100875.94;5072765;28;20077;-82
2022/03/01 07:42:04;;;;;;;0.88;0.88;;;;;;;-0.20;49.17;100868.84;5080844;28;20477;-84
2022/03/01 07:44:37;;;;;;;0.98;0.98;;;;;;;0.02;48.55;100882.94;5044750;28;20065;-83
2022/03/01 07:47:08;;;;;;;1.00;1.00;;;;;;;0.14;47.62;100882.72;5069039;28;20079;-82
2022/03/01 07:49:35;;;;;;;1.00;1.00;;;;;;;0.30;45.73;100866.31;5056916;28;20045;-84
2022/03/01 07:52:03;;;;;;;1.02;1.02;;;;;;;0.38;46.12;100869.16;5076348;28;20050;-84
2022/03/01 07:54:30;;;;;;;1.00;1.00;;;;;;;0.51;46.34;100865.44;5050852;28;20074;-84
2022/03/01 07:56:58;;;;;;;1.05;1.05;;;;;;;0.85;46.14;100868.63;5067113;28;20044;-84
2022/03/01 07:59:25;;;;;;;1.10;1.10;;;;;;;1.17;45.31;100855.13;5063981;28;20101;-85
2022/03/01 08:01:54;;;;;;;1.10;1.10;;;;;;;1.44;43.61;100856.22;5089167;28;20059;-85
2022/03/01 08:04:22;;;;;;;1.00;1.00;;;;;;;1.60;42.83;100848.53;5088551;28;20404;-84
2022/03/01 08:06:51;;;;;;;1.23;1.20;;;;;;;1.82;42.36;100849.19;5046245;28;20147;-87
2022/03/01 08:09:19;;;;;;;1.08;1.08;;;;;;;2.03;42.33;100852.53;5084698;28;20044;-85
2022/03/01 08:11:47;;;;;;;1.00;1.00;;;;;;;2.26;41.56;100841.53;5059545;28;20599;-86
2022/03/01 08:14:15;;;;;;;1.00;1.00;;;;;;;2.35;41.13;100838.81;5077256;28;20052;-88
2022/03/01 08:16:45;;;;;;;1.00;1.00;;;;;;;2.63;41.29;100856.66;5087969;28;20056;-84
2022/03/01 08:19:13;;;;;;;1.02;1.02;;;;;;;2.85;40.25;100848.25;5070996;28;20148;-85
2022/03/01 08:21:42;;;;;;;1.20;1.10;;;;;;;3.04;40.03;100837.47;5066505;28;20529;-86
2022/03/01 08:24:09;;;;;;;1.10;1.10;;;;;;;3.29;39.23;100843.03;5081099;28;20052;-86
2022/03/01 08:26:38;;;;;;;0.98;0.98;;;;;;;3.55;38.09;100839.63;5079987;28;20048;-85
2022/03/01 08:29:08;;;;;;;1.10;1.10;;;;;;;3.85;37.59;100849.03;5073414;28;20055;-85
2022/03/01 08:31:43;;;;;;;1.10;1.10;;;;;;;4.09;37.17;100843.84;5074063;28;20071;-86
2022/03/01 08:34:11;;;;;;;1.15;1.15;;;;;;;4.51;36.46;100842.25;5055356;28;20422;-85
2022/03/01 08:36:39;;;;;;;1.00;1.00;;;;;;;4.82;36.48;100849.72;5060848;28;20139;-85
2022/03/01 08:39:08;;;;;;;1.10;1.10;;;;;;;4.87;35.97;100836.69;5027581;28;20051;-86
2022/03/01 08:41:36;;;;;;;1.10;1.10;;;;;;;5.12;35.60;100840.28;5035893;28;20061;-85
2022/03/01 08:44:04;;;;;;;1.10;1.10;;;;;;;5.56;34.97;100832.78;5072263;28;20493;-84
2022/03/01 08:46:31;;;;;;;1.10;1.10;;;;;;;5.75;33.98;100836.16;5076301;28;20047;-84
2022/03/01 08:48:59;;;;;;;1.00;1.00;;;;;;;5.70;33.86;100833.09;5068551;28;20048;-84
2022/03/01 08:51:28;;;;;;;1.00;1.00;;;;;;;5.81;33.37;100835.47;5061539;28;20048;-87
2022/03/01 08:53:55;;;;;;;1.00;1.00;;;;;;;6.02;32.71;100843.00;5082859;28;20048;-84
2022/03/01 08:56:23;;;;;;;0.88;0.88;;;;;;;6.25;32.14;100838.63;5084684;28;20047;-82
2022/03/01 08:58:51;;;;;;;1.00;1.00;;;;;;;6.35;31.06;100833.03;5065159;28;20135;-84
2022/03/01 09:01:27;;;;;;;0.98;0.98;;;;;;;6.34;29.90;100836.75;5080771;28;20056;-86
2022/03/01 09:03:54;;;;;;;1.00;1.00;;;;;;;6.35;29.78;100833.03;5084947;28;20396;-85
2022/03/01 09:06:24;;;;;;;1.00;1.00;;;;;;;6.41;29.23;100836.91;5067109;28;20059;-83
2022/03/01 09:08:51;;;;;;;1.05;1.05;;;;;;;6.47;28.45;100839.69;5079137;28;20083;-83
2022/03/01 09:11:21;;;;;;;1.00;1.00;;;;;;;6.29;28.56;100839.94;5046039;28;20131;-84
2022/03/01 09:13:49;;;;;;;1.00;1.00;;;;;;;6.26;28.31;100839.44;5081730;28;20140;-84
2022/03/01 09:16:16;;;;;;;1.10;1.10;;;;;;;6.46;28.25;100842.56;5081974;28;20050;-84
2022/03/01 09:18:44;;;;;;;1.00;1.00;;;;;;;6.65;28.37;100838.63;5078521;28;20391;-83
2022/03/01 09:21:12;;;;;;;1.00;1.00;;;;;;;6.75;27.43;100830.38;5063152;28;20062;-82
2022/03/01 09:23:43;;;;;;;1.00;1.00;;;;;;;7.01;27.49;100832.75;5081599;28;20471;-83
2022/03/01 09:26:11;;;;;;;1.10;1.10;;;;;;;7.23;27.33;100831.94;5033096;28;20052;-84
2022/03/01 09:28:42;;;;;;;1.10;1.10;;;;;;;7.31;27.28;100831.06;5083398;28;20085;-84
2022/03/01 09:31:10;;;;;;;1.10;1.10;;;;;;;7.43;27.20;100826.09;5073284;28;20060;-84
2022/03/01 09:33:42;;;;;;;1.10;1.10;;;;;;;7.64;26.76;100823.56;5053789;28;20056;-86
2022/03/01 09:36:11;;;;;;;1.00;1.00;;;;;;;7.63;27.03;100821.91;5053992;28;20090;-85
2022/03/01 09:38:39;;;;;;;1.00;1.00;;;;;;;7.30;27.00;100819.47;5078821;28;20052;-81
2022/03/01 09:41:08;;;;;;;1.00;1.00;;;;;;;7.61;27.14;100818.56;5078815;28;20055;-88
2022/03/01 09:43:36;;;;;;;1.10;1.10;;;;;;;8.45;26.96;100823.81;5084246;28;20052;-90
2022/03/01 09:46:06;;;;;;;1.10;1.10;;;;;;;9.23;26.29;100802.56;5088587;28;20068;-86
2022/03/01 09:48:35;;;;;;;1.00;1.00;;;;;;;9.32;25.68;100818.44;5087039;28;20086;-88
2022/03/01 09:51:04;;;;;;;1.08;1.08;;;;;;;8.83;25.74;100808.34;5058777;28;20044;-87
2022/03/01 09:53:36;;;;;;;1.00;1.00;;;;;;;8.73;25.70;100788.97;5083619;28;20076;-88
2022/03/01 09:56:04;;;;;;;1.00;1.00;;;;;;;9.08;25.57;100808.84;5071958;28;20040;-86
2022/03/01 09:58:31;;;;;;;1.10;1.10;;;;;;;9.20;25.08;100802.97;5070560;28;20086;-89
2022/03/01 10:01:02;;;;;;;1.10;1.10;;;;;;;9.82;25.39;100790.66;4733871;28;10000568;-86
2022/03/01 10:03:34;;;;;;;1.00;1.00;;;;;;;9.98;24.68;100799.28;5072906;28;20057;-85
2022/03/01 10:06:11;;;;;;;1.00;1.00;;;;;;;9.98;24.49;100793.06;5054927;28;20633;-85
2022/03/01 10:08:39;;;;;;;1.05;1.05;;;;;;;9.95;24.38;100788.91;5042576;28;20556;-86
2022/03/01 10:11:12;;;;;;;1.10;1.10;;;;;;;9.50;24.07;100777.53;5020727;28;20048;-86
2022/03/01 10:13:41;;;;;;;1.05;1.05;;;;;;;9.55;24.33;100782.34;5044414;28;20043;-88
2022/03/01 10:16:09;;;;;;;1.00;1.00;;;;;;;10.08;23.56;100780.06;5061516;28;20036;-89
2022/03/01 10:18:47;;;;;;;1.10;1.10;;;;;;;9.50;23.62;100771.31;5038679;28;20048;-85
2022/03/01 10:21:18;;;;;;;1.10;1.10;;;;;;;9.53;23.59;100771.75;5071790;28;20049;-86
2022/03/01 10:24:02;;;;;;;1.02;1.02;;;;;;;10.54;23.81;100773.28;5070967;28;20055;-86
2022/03/01 10:26:49;;;;;;;1.10;1.10;;;;;;;10.91;22.33;100766.53;5054849;28;20054;-87
2022/03/01 10:29:45;;;;;;;1.10;1.10;;;;;;;10.31;22.60;100768.19;5062518;28;20045;-87
2022/03/01 10:32:12;;;;;;;;;;;;;;;10.46;23.19;100768.88;5071269;28;20180;-88
2022/03/01 10:35:09;;;;;;;1.10;1.10;;;;;;;10.85;22.01;100760.06;5061460;28;19985;-88
2022/03/01 10:37:39;;;;;;;1.10;1.10;;;;;;;10.91;21.39;100765.69;5058625;28;20087;-87
2022/03/01 10:40:14;;;;;;;1.10;1.10;;;;;;;10.58;21.54;100756.47;5080560;28;20055;-86
2022/03/01 10:42:45;;;;;;;1.10;1.10;;;;;;;10.89;21.75;100749.72;5077121;28;20465;-86
2022/03/01 10:45:13;;;;;;;1.05;1.05;;;;;;;11.40;21.15;100751.84;5050327;28;20074;-86
2022/03/01 10:47:52;;;;;;;1.10;1.10;;;;;;;11.54;21.70;100751.84;5068526;28;20185;-86
2022/03/01 10:50:19;;;;;;;1.10;1.10;;;;;;;12.30;21.09;100757.56;5060437;28;20073;-85
2022/03/01 10:52:47;;;;;;;1.00;1.00;;;;;;;12.86;20.29;100750.66;5057846;28;20041;-85
2022/03/01 10:55:26;;;;;;;1.10;1.10;;;;;;;13.36;19.67;100749.97;5069230;28;20052;-85
2022/03/01 10:58:00;;;;;;;1.00;1.00;;;;;;;13.61;19.72;100744.56;5070060;28;20040;-86
2022/03/01 11:00:30;;;;;;;1.00;1.00;;;;;;;14.38;19.28;100745.03;5065118;28;20094;-85
2022/03/01 11:02:57;;;;;;;1.00;1.00;;;;;;;14.37;19.10;100746.06;5070436;28;20056;-86
2022/03/01 11:05:30;;;;;;;1.00;1.00;;;;;;;14.66;18.98;100744.50;5056473;28;20432;-86
2022/03/01 11:08:18;;;;;;;0.95;0.95;;;;;;;14.74;19.06;100736.03;5092063;28;20624;-88
2022/03/01 11:10:46;;;;;;;0.90;0.90;;;;;;;14.51;19.51;100727.72;5072156;28;20058;-92
2022/03/01 11:13:19;;;;;;;1.00;1.00;;;;;;;13.26;19.57;100722.47;5072467;28;20603;-88
2022/03/01 11:16:32;;;;;;;1.00;1.00;;;;;;;13.61;19.75;100729.09;5089151;28;20430;-87
2022/03/01 11:19:36;;;;;;;1.00;1.00;;;;;;;13.72;19.69;100726.72;5042977;28;20131;-89
2022/03/01 11:22:04;;;;;;;1.00;1.00;;;;;;;14.23;19.34;100710.09;5063346;28;20049;-90
2022/03/01 11:24:33;;;;;;;1.00;1.00;;;;;;;12.72;19.86;100722.84;5053438;28;20063;-89
2022/03/01 11:27:05;;;;;;;1.00;1.00;;;;;;;12.35;20.51;100714.44;5070736;28;20059;-89
2022/03/01 11:29:39;;;;;;;1.00;1.00;;;;;;;12.79;20.52;100718.22;5064405;28;20070;-93
2022/03/01 11:32:17;;;;;;;1.00;1.00;;;;;;;13.23;19.94;100715.63;5063594;28;20045;-91
2022/03/01 11:34:45;;;;;;;1.00;1.00;;;;;;;13.48;20.19;100714.84;5032757;28;20565;-93
2022/03/01 11:37:17;;;;;;;1.00;1.00;;;;;;;13.94;20.03;100702.69;5065927;28;20133;-91
2022/03/01 11:39:57;;;;;;;1.00;1.00;;;;;;;13.09;19.69;100714.91;5034531;28;20122;-91